Terminal Aerodrome Forecast
Issued by NWS Medford, OR

Home | Current Version | Previous Version | Text Only | Print | Product List | Glossary On
Versions: 1 2 3 4 5 6 7 8 9 10 11 12 13 14 15 16 17 18 19 20 21
000
FTUS46 KMFR 252029 AAB
TAFMFR
TAF AMD
KMFR 252029Z 2520/2618 00000KT 3SM BR BKN002
     FM252100 VRB03KT P6SM SKC
     FM260700 00000KT 3SM BR SCT002
     FM260800 00000KT 1/4SM FG OVC002
     FM261700 00000KT 1SM BR OVC004=

USA.gov is the U.S. government's official web portal to all federal, state and local government web resources and services.